aviador You're here:

KLPC Decoded Metar

LOMPOC in CA, USA
Report Time2017-06-25 05:56:00
UTC Time2017-06-25 06:56:21
Flight Rules ifr IFR
Wind320° at 06 kt
W.Decomp.*RWY 25: 3.4 kt HW 4.9 kt RCW
W.Rank320° ranks 10
Current wind is below 320° avg. (7.4)
Visibility9999 m
Phenomena:N/A
Clouds:Overcast 006 Hf
Expected CloudBase > 400 ft AGL from Temp-Dew spread
Ceiling600 ft
Temp14°C (ISA -1)
Dew Point13°C (94% RH)
AAT12.8°C
QNH1014 hPa
Density Alt157 ft
Elevation89 ft
Report Wrong Elevation
Raw Report
KLPC 250556Z AUTO 32006KT 10SM OVC006 14/13 A2995 RMK AO2 SLP145
T01440133 10200 20144 53005=

Extra information for KLPC:More info

Metar Taf Metar & Taf Last 4 Metars F.Rules Stats Wind Profile Meteogram Temp Stats Airport Information Weather charts Add Link Nearby VenuesMetar ALERT Operation Metar Decoded Social comments

AIRNAV info for KLPC